Time;durP1;ratioP1;P1;durP2;ratioP2;P2;SDS_P1;SDS_P2;PMS_P1;PMS_P2;Temp;Humidity;BMP_temperature;BMP_pressure;BME280_temperature;BME280_humidity;BME280_pressure;Samples;Min_cycle;Max_cycle;Signal;HPM_P1;HPM_P2
2022/06/08 00:01:37;;;;;;;;;;;;;;;14.93;54.72;99239.16;5130973;27;20430;-41
2022/06/08 00:04:05;;;;;;;9.00;3.22;;;;;;;14.84;54.55;99227.47;5131987;27;19922;-44
2022/06/08 00:06:31;;;;;;;12.13;3.00;;;;;;;14.74;55.62;99215.00;5121671;27;20126;-42
2022/06/08 00:08:56;;;;;;;9.30;3.25;;;;;;;14.89;55.86;99242.88;5125639;27;20133;-43
2022/06/08 00:11:23;;;;;;;15.32;3.65;;;;;;;14.90;55.92;99238.50;5118555;27;20035;-43
2022/06/08 00:13:48;;;;;;;13.07;3.20;;;;;;;14.89;55.64;99240.28;5113099;27;20047;-43
2022/06/08 00:16:14;;;;;;;10.48;3.63;;;;;;;14.83;55.36;99230.16;5098785;28;20078;-43
2022/06/08 00:18:42;;;;;;;12.93;4.07;;;;;;;14.90;55.32;99238.50;5093023;28;20511;-42
2022/06/08 00:21:08;;;;;;;7.72;3.40;;;;;;;14.93;55.61;99246.16;5119088;27;20469;-43
2022/06/08 00:23:34;;;;;;;9.40;3.60;;;;;;;14.93;56.61;99241.78;5122687;27;20048;-42
2022/06/08 00:26:00;;;;;;;11.75;3.65;;;;;;;14.89;56.43;99234.19;5111550;28;20430;-42
2022/06/08 00:28:26;;;;;;;10.60;3.60;;;;;;;14.90;55.67;99228.03;5102716;27;20133;-42
2022/06/08 00:30:52;;;;;;;12.93;4.28;;;;;;;15.01;55.36;99243.94;5116570;27;20066;-43
2022/06/08 00:33:19;;;;;;;11.05;3.80;;;;;;;15.02;56.48;99238.59;5112598;27;20047;-42
2022/06/08 00:35:47;;;;;;;14.02;3.83;;;;;;;15.02;56.97;99233.38;5099914;27;20035;-43
2022/06/08 00:38:13;;;;;;;11.32;3.92;;;;;;;15.01;57.39;99243.94;5131707;27;20425;-42
2022/06/08 00:40:58;;;;;;;14.20;3.95;;;;;;;15.01;57.69;99246.56;5130692;27;20134;-42
2022/06/08 00:43:24;;;;;;;9.68;3.58;;;;;;;14.99;57.75;99240.56;5112755;28;20042;-44
2022/06/08 00:45:51;;;;;;;13.05;5.50;;;;;;;14.98;57.12;99242.34;5123579;27;20569;-42
2022/06/08 00:48:18;;;;;;;13.20;4.20;;;;;;;14.97;56.32;99238.03;5125333;27;20041;-43
2022/06/08 00:50:50;;;;;;;7.38;3.55;;;;;;;14.92;55.87;99216.53;5130767;27;20111;-43
2022/06/08 00:53:26;;;;;;;9.27;4.25;;;;;;;15.04;56.20;99238.53;5117845;27;20035;-42
2022/06/08 00:55:52;;;;;;;11.27;4.32;;;;;;;15.05;56.68;99230.59;5110973;28;20074;-42
2022/06/08 00:58:23;;;;;;;11.02;4.55;;;;;;;15.08;56.81;99232.16;5112194;27;20517;-45
2022/06/08 01:00:50;;;;;;;13.35;4.85;;;;;;;15.07;56.46;99230.50;5094356;28;20568;-42
2022/06/08 01:03:18;;;;;;;20.52;5.72;;;;;;;15.06;55.93;99226.19;5085350;27;20047;-43
2022/06/08 01:05:59;;;;;;;11.95;5.28;;;;;;;15.05;55.37;99227.13;5120321;27;20046;-43
2022/06/08 01:08:43;;;;;;;8.90;4.13;;;;;;;15.06;55.16;99234.88;5130742;27;20039;-42
2022/06/08 01:11:29;;;;;;;9.77;3.75;;;;;;;15.08;55.11;99234.78;5099019;28;20104;-42
2022/06/08 01:13:59;;;;;;;9.18;3.35;;;;;;;15.08;54.64;99234.78;5098844;27;20429;-42
2022/06/08 01:16:26;;;;;;;8.75;3.78;;;;;;;15.05;54.29;99225.34;5104408;27;20046;-42
2022/06/08 01:18:54;;;;;;;7.10;3.33;;;;;;;14.99;54.22;99220.47;5126441;27;20498;-42
2022/06/08 01:21:22;;;;;;;11.20;3.83;;;;;;;15.06;53.97;99231.44;5097612;27;20529;-43
2022/06/08 01:24:02;;;;;;;8.60;3.13;;;;;;;15.06;53.46;99234.03;5114886;27;20084;-43
2022/06/08 01:26:39;;;;;;;6.72;2.65;;;;;;;15.06;53.24;99236.66;5127580;27;20046;-43
2022/06/08 01:29:32;;;;;;;9.60;3.13;;;;;;;15.08;52.97;99234.78;5111510;28;20047;-42
2022/06/08 01:32:01;;;;;;;13.10;3.13;;;;;;;15.11;53.09;99237.22;5110876;27;20138;-41
2022/06/08 01:34:45;;;;;;;11.80;2.90;;;;;;;15.13;53.21;99236.19;5111632;27;20460;-43
2022/06/08 01:37:21;;;;;;;5.97;2.90;;;;;;;15.14;53.08;99240.50;5127147;27;20407;-42
2022/06/08 01:40:16;;;;;;;9.50;2.95;;;;;;;15.13;53.17;99241.44;5109935;28;20058;-43
2022/06/08 01:43:00;;;;;;;8.23;2.90;;;;;;;15.12;53.45;99242.38;5126540;27;20135;-42
2022/06/08 01:45:37;;;;;;;9.40;3.25;;;;;;;15.16;53.80;99250.88;5130370;27;20057;-42
2022/06/08 01:48:38;;;;;;;10.95;3.28;;;;;;;15.15;53.97;99252.66;5112806;28;20594;-41
2022/06/08 01:51:19;;;;;;;8.35;3.03;;;;;;;15.12;54.19;99250.25;5110088;28;20039;-42
2022/06/08 01:54:02;;;;;;;10.00;3.20;;;;;;;15.04;54.41;99255.06;5110076;28;20533;-43
2022/06/08 01:56:46;;;;;;;7.28;3.30;;;;;;;15.00;54.44;99256.19;5123049;28;20038;-42
2022/06/08 01:59:40;;;;;;;6.97;3.42;;;;;;;15.02;54.33;99253.50;5129263;27;20032;-43
2022/06/08 02:02:26;;;;;;;10.23;3.60;;;;;;;15.01;54.54;99257.88;5114106;28;20089;-42
2022/06/08 02:05:04;;;;;;;9.63;3.20;;;;;;;15.01;54.54;99262.28;5081786;28;20051;-43
2022/06/08 02:07:55;;;;;;;9.80;3.47;;;;;;;14.96;54.92;99264.31;5116902;27;20130;-42
2022/06/08 02:10:24;;;;;;;8.63;3.30;;;;;;;14.94;55.37;99255.69;5110970;27;20042;-42
2022/06/08 02:12:57;;;;;;;9.70;3.30;;;;;;;14.93;55.53;99264.47;5134563;27;20043;-43
2022/06/08 02:15:31;;;;;;;12.05;3.67;;;;;;;14.87;55.46;99251.75;5117112;27;20494;-43
2022/06/08 02:18:00;;;;;;;10.55;3.28;;;;;;;14.90;55.63;99254.22;5116671;27;20165;-43
2022/06/08 02:20:46;;;;;;;11.80;3.13;;;;;;;14.99;55.91;99264.13;5107688;27;20043;-43
2022/06/08 02:23:42;;;;;;;6.97;3.45;;;;;;;14.97;56.15;99272.06;5109636;27;20461;-42
2022/06/08 02:26:20;;;;;;;12.57;3.42;;;;;;;14.90;56.33;99270.75;5134227;27;20043;-42
2022/06/08 02:28:55;;;;;;;11.95;3.45;;;;;;;14.84;56.43;99260.66;5131784;27;20046;-42
2022/06/08 02:31:52;;;;;;;7.43;3.53;;;;;;;14.93;56.91;99269.72;5131179;27;20035;-42
2022/06/08 02:34:31;;;;;;;13.80;3.85;;;;;;;14.93;57.09;99283.66;5133090;27;20050;-43
2022/06/08 02:36:59;;;;;;;8.85;3.42;;;;;;;14.91;57.10;99284.69;5114020;27;20045;-42
2022/06/08 02:39:33;;;;;;;7.75;3.80;;;;;;;14.95;57.38;99278.34;5132420;27;20047;-43
2022/06/08 02:42:05;;;;;;;7.95;3.58;;;;;;;15.00;58.21;99273.66;5134048;27;20046;-42
2022/06/08 02:44:31;;;;;;;11.70;4.00;;;;;;;15.02;58.39;99279.69;5133784;27;20092;-42
2022/06/08 02:47:05;;;;;;;14.65;3.92;;;;;;;14.99;58.33;99275.44;5133559;27;20047;-42
2022/06/08 02:49:35;;;;;;;7.05;3.50;;;;;;;14.98;58.79;99281.59;5133966;27;20077;-42
2022/06/08 02:52:06;;;;;;;10.38;3.83;;;;;;;14.96;58.88;99275.63;5131120;27;20418;-42
2022/06/08 02:54:32;;;;;;;12.35;3.67;;;;;;;14.95;58.83;99273.09;5117548;27;20061;-41
2022/06/08 02:57:14;;;;;;;12.10;3.92;;;;;;;14.96;58.98;99277.41;5108451;27;20031;-41
2022/06/08 02:59:49;;;;;;;11.35;4.60;;;;;;;14.96;59.11;99290.50;5104048;27;20051;-43
2022/06/08 03:02:36;;;;;;;10.05;3.90;;;;;;;14.96;59.74;99286.09;5116325;27;20407;-42
2022/06/08 03:05:11;;;;;;;14.48;4.32;;;;;;;14.97;59.50;99293.00;5129800;27;20423;-43
2022/06/08 03:07:59;;;;;;;9.65;3.95;;;;;;;14.93;59.32;99286.28;5113011;28;20046;-42
2022/06/08 03:10:28;;;;;;;12.88;4.05;;;;;;;15.02;59.46;99296.19;5111587;27;20517;-43
2022/06/08 03:13:03;;;;;;;12.48;3.90;;;;;;;15.03;59.70;99295.28;5109418;28;20047;-42
2022/06/08 03:15:28;;;;;;;9.90;3.92;;;;;;;14.97;59.81;99286.97;5114316;27;20046;-43
2022/06/08 03:17:55;;;;;;;15.00;3.85;;;;;;;15.00;60.11;99294.63;5112722;28;20082;-43
2022/06/08 03:20:23;;;;;;;9.45;4.05;;;;;;;15.09;60.46;99309.78;5113621;27;20039;-42
2022/06/08 03:22:49;;;;;;;14.25;4.35;;;;;;;15.08;60.04;99298.47;5095706;28;20043;-43
2022/06/08 03:25:16;;;;;;;12.35;4.35;;;;;;;15.09;60.13;99301.91;5118288;27;20047;-41
2022/06/08 03:27:45;;;;;;;11.50;3.70;;;;;;;15.18;59.93;99306.59;5126500;27;20089;-42
2022/06/08 03:30:12;;;;;;;20.20;4.07;;;;;;;15.21;59.91;99307.28;5112773;28;20155;-43
2022/06/08 03:32:40;;;;;;;11.65;3.83;;;;;;;15.26;59.62;99315.72;5122720;27;20121;-42
2022/06/08 03:35:08;;;;;;;15.65;4.28;;;;;;;15.32;59.96;99311.03;5129369;27;20043;-44
2022/06/08 03:37:35;;;;;;;20.90;4.53;;;;;;;15.37;59.58;99314.25;5112707;27;20546;-43
2022/06/08 03:40:03;;;;;;;9.68;3.83;;;;;;;15.42;59.36;99305.16;5112233;28;20059;-42
2022/06/08 03:42:30;;;;;;;9.63;3.50;;;;;;;15.46;58.94;99308.44;5095012;28;20045;-42
2022/06/08 03:44:55;;;;;;;12.27;3.95;;;;;;;15.52;58.44;99310.72;5130937;27;20227;-43
2022/06/08 03:47:28;;;;;;;14.75;4.50;;;;;;;15.52;57.97;99300.25;5110935;28;20050;-44
2022/06/08 03:49:57;;;;;;;9.35;3.72;;;;;;;15.59;57.89;99301.56;5112283;28;20035;-43
2022/06/08 03:52:25;;;;;;;11.77;3.58;;;;;;;15.70;57.48;99306.16;5112081;28;20040;-43
2022/06/08 03:54:58;;;;;;;8.32;3.38;;;;;;;15.65;56.59;99302.00;5122533;27;20524;-43
2022/06/08 03:57:29;;;;;;;11.52;3.72;;;;;;;15.73;55.70;99296.31;5111897;27;20050;-42
2022/06/08 04:00:00;;;;;;;13.65;2.80;;;;;;;15.87;54.95;99305.94;5111672;27;20043;-43
2022/06/08 04:02:27;;;;;;;11.00;2.83;;;;;;;15.93;53.89;99309.03;5115403;27;20092;-43
2022/06/08 04:04:54;;;;;;;15.18;2.70;;;;;;;16.00;52.96;99314.75;5114728;27;20070;-44
2022/06/08 04:07:19;;;;;;;5.10;2.60;;;;;;;16.04;53.18;99314.44;5122414;27;20043;-43
2022/06/08 04:09:47;;;;;;;7.65;2.53;;;;;;;16.03;52.66;99304.06;5103502;27;20067;-44
2022/06/08 04:12:13;;;;;;;7.43;2.60;;;;;;;16.17;52.50;99318.94;5114568;27;20035;-42
2022/06/08 04:14:40;;;;;;;6.97;2.60;;;;;;;16.20;51.78;99319.56;5128329;27;20035;-43
2022/06/08 04:17:10;;;;;;;6.72;2.17;;;;;;;16.30;51.38;99317.22;5116723;27;20129;-44
2022/06/08 04:19:36;;;;;;;9.35;2.30;;;;;;;16.36;50.98;99316.81;5149447;27;20039;-43
2022/06/08 04:22:02;;;;;;;8.15;2.47;;;;;;;16.40;51.06;99315.69;5128665;27;20066;-41
2022/06/08 04:24:29;;;;;;;3.08;1.98;;;;;;;16.48;50.91;99316.91;5132387;27;20195;-42
2022/06/08 04:26:57;;;;;;;7.13;1.85;;;;;;;16.46;50.26;99303.03;5127876;27;20047;-43
2022/06/08 04:29:29;;;;;;;5.90;2.10;;;;;;;16.59;50.17;99315.38;5122836;27;20047;-43
2022/06/08 04:31:55;;;;;;;2.78;1.95;;;;;;;16.65;49.77;99314.97;5116680;27;20414;-42
2022/06/08 04:34:25;;;;;;;4.55;2.47;;;;;;;16.71;49.21;99312.78;5114528;27;20442;-43
2022/06/08 04:36:51;;;;;;;3.05;1.50;;;;;;;16.80;48.72;99306.13;5114003;27;20039;-43
2022/06/08 04:39:20;;;;;;;7.18;2.17;;;;;;;16.86;48.53;99311.78;5131309;27;20057;-43
2022/06/08 04:41:58;;;;;;;5.97;2.55;;;;;;;16.97;47.93;99310.22;5131533;27;20436;-42
2022/06/08 04:44:29;;;;;;;9.20;2.30;;;;;;;17.00;47.86;99303.00;5131160;27;20045;-43
2022/06/08 04:46:55;;;;;;;7.78;2.85;;;;;;;17.10;47.70;99306.69;5130217;27;20039;-42
2022/06/08 04:49:23;;;;;;;8.32;2.45;;;;;;;17.18;47.50;99308.78;5111260;28;20049;-43
2022/06/08 04:51:51;;;;;;;5.80;1.97;;;;;;;17.20;46.96;99302.50;5115764;27;20070;-43
2022/06/08 04:54:18;;;;;;;4.40;2.10;;;;;;;17.29;46.83;99307.13;5131386;27;20525;-43
2022/06/08 04:56:46;;;;;;;6.93;1.70;;;;;;;17.36;46.69;99304.94;5131068;27;20046;-41
2022/06/08 04:59:12;;;;;;;6.78;2.55;;;;;;;17.40;46.55;99306.41;5127324;27;20572;-42
2022/06/08 05:01:43;;;;;;;4.35;2.30;;;;;;;17.45;46.38;99293.78;5119463;27;20096;-42
2022/06/08 05:04:12;;;;;;;8.57;2.80;;;;;;;17.58;46.38;99305.16;5131480;27;20047;-42
2022/06/08 05:06:38;;;;;;;5.82;2.70;;;;;;;17.65;46.41;99303.81;5129486;27;20050;-43
2022/06/08 05:09:05;;;;;;;12.13;3.00;;;;;;;17.64;46.59;99294.22;5127107;27;20036;-42
2022/06/08 05:11:36;;;;;;;9.40;2.42;;;;;;;17.81;46.57;99308.00;5092773;27;20039;-44
2022/06/08 05:14:02;;;;;;;12.05;5.00;;;;;;;17.88;46.53;99296.94;5127409;27;20024;-43
2022/06/08 05:16:28;;;;;;;8.50;4.05;;;;;;;17.96;46.37;99304.28;5123248;27;20043;-43
2022/06/08 05:18:58;;;;;;;10.32;2.92;;;;;;;18.06;46.18;99315.81;5131004;27;20047;-43
2022/06/08 05:21:24;;;;;;;7.65;2.70;;;;;;;18.03;45.84;99293.22;5110190;28;20189;-43
2022/06/08 05:23:51;;;;;;;6.88;2.78;;;;;;;18.24;45.67;99318.94;5110410;28;20085;-44
2022/06/08 05:26:22;;;;;;;8.60;3.20;;;;;;;18.31;45.28;99313.16;5109465;27;20098;-45
2022/06/08 05:28:47;;;;;;;8.63;3.17;;;;;;;18.41;45.09;99308.91;5128850;27;20518;-42
2022/06/08 05:31:15;;;;;;;4.82;2.67;;;;;;;18.49;44.85;99324.97;5126448;27;20034;-50
2022/06/08 05:33:44;;;;;;;11.32;2.63;;;;;;;18.60;44.72;99321.59;5119104;27;20035;-43
2022/06/08 05:36:16;;;;;;;4.72;2.30;;;;;;;18.65;44.80;99314.19;5111588;27;20078;-44
2022/06/08 05:38:43;;;;;;;11.23;2.83;;;;;;;18.81;44.41;99324.44;5107313;27;20069;-45
2022/06/08 05:41:09;;;;;;;6.43;2.30;;;;;;;18.93;43.75;99324.41;5095387;27;20054;-46
2022/06/08 05:43:38;;;;;;;6.22;3.15;;;;;;;19.06;43.29;99332.22;5119275;27;20537;-42
2022/06/08 05:46:04;;;;;;;10.30;4.53;;;;;;;19.15;43.18;99328.06;5093983;28;20047;-42
2022/06/08 05:48:31;;;;;;;7.82;2.30;;;;;;;19.27;42.48;99327.13;5110391;28;20127;-44
2022/06/08 05:51:01;;;;;;;7.22;2.10;;;;;;;19.38;41.93;99341.16;5118450;28;20145;-43
2022/06/08 05:53:28;;;;;;;7.68;2.03;;;;;;;19.47;42.01;99334.38;5112178;28;20586;-44
2022/06/08 05:55:54;;;;;;;5.95;1.90;;;;;;;19.56;41.95;99332.84;5127438;28;20511;-42
2022/06/08 05:58:22;;;;;;;7.03;2.20;;;;;;;19.69;41.09;99330.94;5126713;28;20043;-42
2022/06/08 06:00:50;;;;;;;3.97;2.00;;;;;;;19.76;40.75;99324.22;5114609;28;20419;-43
2022/06/08 06:03:18;;;;;;;7.68;2.45;;;;;;;19.85;40.40;99334.91;5112786;28;20055;-43
2022/06/08 06:05:44;;;;;;;7.82;2.80;;;;;;;19.96;40.48;99330.59;5112264;28;20099;-43
2022/06/08 06:08:13;;;;;;;4.88;2.20;;;;;;;20.08;40.51;99338.41;5126862;28;20043;-43
2022/06/08 06:10:52;;;;;;;4.95;2.00;;;;;;;20.12;39.94;99321.34;5103842;28;20032;-42
2022/06/08 06:13:26;;;;;;;6.65;2.88;;;;;;;20.19;40.00;99319.91;5093917;28;20067;-44
2022/06/08 06:15:57;;;;;;;6.73;1.97;;;;;;;20.40;39.64;99332.38;5115104;28;20619;-42
2022/06/08 06:18:23;;;;;;;11.27;1.92;;;;;;;20.53;39.19;99339.19;5112608;28;20498;-44
2022/06/08 06:20:57;;;;;;;6.40;1.92;;;;;;;20.66;39.14;99345.16;5126430;28;20066;-44
2022/06/08 06:23:46;;;;;;;4.80;1.90;;;;;;;20.81;39.12;99336.94;5102049;27;20055;-45
2022/06/08 06:26:29;;;;;;;8.40;2.42;;;;;;;20.94;38.46;99338.44;5130250;28;20103;-44
2022/06/08 06:29:25;;;;;;;6.70;1.70;;;;;;;21.16;37.66;99339.34;5126467;28;20123;-42
2022/06/08 06:32:21;;;;;;;7.22;3.10;;;;;;;21.34;37.08;99351.03;5113806;28;20125;-43
2022/06/08 06:34:49;;;;;;;5.00;2.17;;;;;;;21.52;36.48;99339.75;5108982;28;20039;-45
2022/06/08 06:37:15;;;;;;;3.47;1.23;;;;;;;21.80;36.31;99334.75;5116816;28;20507;-42
2022/06/08 06:39:42;;;;;;;7.30;2.67;;;;;;;22.42;35.18;99334.56;5117442;27;20054;-42
2022/06/08 06:42:22;;;;;;;12.10;1.70;;;;;;;23.29;32.65;99343.44;5103339;28;20035;-43
2022/06/08 06:45:06;;;;;;;6.38;2.63;;;;;;;24.26;30.52;99326.28;5114575;27;20562;-47
2022/06/08 06:47:42;;;;;;;4.45;3.15;;;;;;;25.69;28.61;99349.28;5121157;27;20074;-46
2022/06/08 06:50:25;;;;;;;7.05;1.30;;;;;;;26.84;26.94;99353.09;5109348;27;20043;-45
2022/06/08 06:52:51;;;;;;;;;;;;;;;27.97;26.42;99356.75;5089690;28;20100;-43
2022/06/08 06:55:22;;;;;;;4.70;1.30;;;;;;;29.16;24.84;99355.50;5113483;27;19920;-45
2022/06/08 06:57:49;;;;;;;6.65;2.38;;;;;;;30.19;22.82;99335.09;5101519;27;20046;-42
2022/06/08 07:00:18;;;;;;;5.13;1.63;;;;;;;31.22;21.95;99355.47;5128904;27;20556;-39
2022/06/08 07:02:44;;;;;;;5.75;1.70;;;;;;;32.26;20.61;99349.22;5131124;27;20533;-45
2022/06/08 07:05:17;;;;;;;2.08;1.40;;;;;;;33.18;20.13;99336.88;5126435;27;20090;-43
2022/06/08 07:07:45;;;;;;;8.38;1.85;;;;;;;34.22;19.38;99342.44;5118745;27;20043;-43
2022/06/08 07:10:11;;;;;;;8.57;1.80;;;;;;;35.01;18.08;99355.56;5104391;28;20104;-43
2022/06/08 07:12:37;;;;;;;7.95;1.98;;;;;;;35.74;17.61;99353.13;5121852;27;20039;-43
2022/06/08 07:15:03;;;;;;;4.45;1.58;;;;;;;36.37;16.93;99359.13;5131427;27;20066;-45
2022/06/08 07:17:29;;;;;;;1.95;1.40;;;;;;;37.04;15.41;99369.91;5123400;27;20498;-41
2022/06/08 07:19:56;;;;;;;4.35;2.08;;;;;;;37.70;15.24;99370.53;5111467;27;20028;-46
2022/06/08 07:22:22;;;;;;;4.22;1.33;;;;;;;38.21;14.34;99365.47;5122005;27;20042;-47
2022/06/08 07:24:47;;;;;;;4.45;1.70;;;;;;;38.54;13.77;99368.34;5124841;27;20035;-45
2022/06/08 07:27:14;;;;;;;3.55;1.67;;;;;;;38.87;13.80;99363.00;5135999;27;20418;-44
2022/06/08 07:29:40;;;;;;;3.92;1.40;;;;;;;39.10;14.02;99372.16;5128122;27;20043;-47
2022/06/08 07:32:06;;;;;;;3.83;2.47;;;;;;;39.49;13.44;99367.66;5130137;27;20414;-43
2022/06/08 07:34:32;;;;;;;7.85;5.45;;;;;;;39.65;13.28;99370.38;5131728;27;20031;-46
2022/06/08 07:37:00;;;;;;;5.50;1.80;;;;;;;39.70;12.80;99364.16;5148121;27;20605;-46
2022/06/08 07:39:26;;;;;;;2.22;1.50;;;;;;;39.97;12.67;99365.16;5122802;27;20059;-41
2022/06/08 07:41:52;;;;;;;5.68;2.85;;;;;;;40.32;12.91;99364.81;5133840;27;20115;-46
2022/06/08 07:44:18;;;;;;;5.72;1.85;;;;;;;40.80;12.46;99355.03;5109568;28;20480;-44
2022/06/08 07:46:45;;;;;;;1.65;1.42;;;;;;;41.07;12.15;99365.97;5118304;27;20131;-43
2022/06/08 07:51:58;;;;;;;4.90;2.40;;;;;;;41.94;11.56;99357.38;5111548;28;20039;-46
2022/06/08 07:54:25;;;;;;;1.77;1.67;;;;;;;42.27;11.50;99354.25;5128287;27;20043;-48
2022/06/08 07:56:51;;;;;;;;;;;;;;;42.57;11.36;99359.03;5116907;27;20043;-43
2022/06/08 07:59:19;;;;;;;6.30;3.78;;;;;;;42.76;10.71;99360.22;5125356;27;19915;-45
2022/06/08 08:01:46;;;;;;;10.35;6.15;;;;;;;42.68;10.54;99361.56;5121887;27;20051;-45
2022/06/08 08:04:11;;;;;;;1.60;1.50;;;;;;;42.72;9.89;99353.63;5127067;27;20047;-46
2022/06/08 08:06:37;;;;;;;4.60;2.70;;;;;;;43.13;10.19;99361.94;5126302;27;20035;-45
2022/06/08 08:09:03;;;;;;;2.22;2.00;;;;;;;43.34;10.17;99355.38;5124604;27;20553;-47
2022/06/08 08:11:29;;;;;;;4.32;2.10;;;;;;;43.39;10.01;99353.41;5117750;27;20032;-45
2022/06/08 08:13:55;;;;;;;3.95;2.17;;;;;;;43.29;10.21;99358.13;5110454;28;20039;-47
2022/06/08 08:16:21;;;;;;;2.88;1.95;;;;;;;43.32;9.93;99347.44;5109278;28;20499;-45
2022/06/08 08:18:48;;;;;;;8.43;3.53;;;;;;;43.53;9.94;99348.25;5145126;27;20043;-46
2022/06/08 08:21:14;;;;;;;2.25;1.92;;;;;;;43.76;10.17;99349.59;5130727;27;20176;-44
2022/06/08 08:23:39;;;;;;;3.92;1.88;;;;;;;44.10;10.11;99353.34;5130895;27;20147;-45
2022/06/08 08:26:05;;;;;;;6.55;3.05;;;;;;;44.20;10.16;99350.56;5130948;27;20521;-48
2022/06/08 08:28:31;;;;;;;5.32;2.30;;;;;;;44.25;10.22;99334.09;5130228;27;20050;-45
2022/06/08 08:30:57;;;;;;;3.45;2.13;;;;;;;44.80;9.50;99353.31;5132949;27;20449;-48
2022/06/08 08:33:22;;;;;;;2.05;1.83;;;;;;;45.05;9.56;99348.50;5119262;27;20062;-45
2022/06/08 08:35:50;;;;;;;3.58;1.90;;;;;;;44.88;9.52;99348.03;5111191;28;20436;-45
2022/06/08 08:38:16;;;;;;;3.88;2.30;;;;;;;44.75;9.72;99345.94;5125633;27;20073;-46
2022/06/08 08:40:45;;;;;;;2.78;2.13;;;;;;;44.70;9.86;99346.78;5130875;27;20050;-44
2022/06/08 08:43:22;;;;;;;6.95;2.13;;;;;;;44.43;9.55;99335.41;5113897;27;20054;-43
2022/06/08 08:46:07;;;;;;;;;;;;;;;44.72;9.97;99339.09;5112327;27;20512;-46
2022/06/08 08:48:45;;;;;;;3.90;2.58;;;;;;;45.14;9.91;99343.19;5110864;27;19919;-46
2022/06/08 08:51:17;;;;;;;6.25;3.42;;;;;;;45.32;9.29;99345.25;5108402;28;20499;-43
2022/06/08 08:54:01;;;;;;;5.90;2.30;;;;;;;45.29;9.25;99332.09;5113240;27;20043;-45
2022/06/08 08:56:38;;;;;;;2.03;1.92;;;;;;;45.31;9.37;99334.56;5123561;27;20039;-44
2022/06/08 08:59:16;;;;;;;2.63;2.10;;;;;;;45.35;9.30;99341.09;5129148;27;20551;-45
2022/06/08 09:01:45;;;;;;;7.70;2.80;;;;;;;45.33;9.63;99330.38;5126756;27;20068;-46
2022/06/08 09:07:17;;;;;;;4.57;3.20;;;;;;;45.69;9.04;99327.34;5112631;27;20491;-44
2022/06/08 09:09:43;;;;;;;2.60;2.40;;;;;;;45.66;8.63;99330.66;5131490;27;20058;-44
2022/06/08 09:12:14;;;;;;;4.50;2.72;;;;;;;45.43;9.15;99330.34;5128469;27;20034;-47
2022/06/08 09:14:49;;;;;;;4.07;3.47;;;;;;;45.64;8.96;99310.91;5112553;27;20399;-44
2022/06/08 09:17:20;;;;;;;3.15;2.30;;;;;;;45.48;8.69;99319.31;5121332;27;20035;-43
2022/06/08 09:19:50;;;;;;;2.60;2.40;;;;;;;45.10;9.16;99318.25;5120421;27;20119;-44
2022/06/08 09:22:26;;;;;;;7.93;2.83;;;;;;;45.14;9.05;99323.97;5121080;27;20514;-44
2022/06/08 09:25:26;;;;;;;5.15;2.70;;;;;;;45.38;9.48;99315.81;5129530;27;20051;-44
2022/06/08 09:27:55;;;;;;;2.75;2.55;;;;;;;45.32;9.51;99319.72;5096448;27;20138;-45
2022/06/08 09:30:30;;;;;;;6.85;2.90;;;;;;;45.69;9.23;99313.59;5119988;27;20162;-45
2022/06/08 09:32:59;;;;;;;9.00;7.00;;;;;;;45.95;9.52;99312.22;5121720;27;20130;-45
2022/06/08 09:35:37;;;;;;;5.70;2.80;;;;;;;46.01;8.91;99310.25;5123115;27;20396;-44
2022/06/08 09:38:11;;;;;;;4.47;3.60;;;;;;;46.02;8.99;99309.09;5102277;28;20047;-45
2022/06/08 09:40:48;;;;;;;3.88;2.50;;;;;;;45.86;8.98;99312.03;5117750;27;20579;-46
2022/06/08 09:43:40;;;;;;;8.57;4.60;;;;;;;46.06;8.83;99311.00;5121089;27;20189;-45
2022/06/08 09:46:11;;;;;;;4.72;2.85;;;;;;;46.11;8.10;99308.19;5101009;28;20039;-44
2022/06/08 09:52:07;;;;;;;3.05;2.65;;;;;;;45.92;8.59;99301.81;5098368;28;20498;-48
2022/06/08 09:54:52;;;;;;;4.60;3.05;;;;;;;45.78;9.52;99309.09;5118585;28;20050;-43
2022/06/08 09:57:46;;;;;;;8.52;4.75;;;;;;;45.92;9.22;99305.38;5119243;28;20430;-44
2022/06/08 10:00:18;;;;;;;5.25;3.85;;;;;;;46.11;8.75;99296.34;5124195;28;20035;-45
2022/06/08 10:02:58;;;;;;;5.90;4.22;;;;;;;46.15;8.70;99300.97;5129353;28;20039;-46
2022/06/08 10:05:39;;;;;;;5.45;2.95;;;;;;;46.05;8.43;99301.09;5120082;27;20032;-43
2022/06/08 10:08:16;;;;;;;3.17;2.90;;;;;;;45.94;8.32;99291.34;5118653;28;20039;-46
2022/06/08 10:11:37;;;;;;;3.85;3.17;;;;;;;46.05;8.13;99279.09;5139205;27;20180;-46
2022/06/08 10:14:10;;;;;;;3.55;3.15;;;;;;;46.08;8.82;99289.50;5110342;28;20077;-46
2022/06/08 10:16:40;;;;;;;3.25;2.95;;;;;;;46.00;8.94;99289.34;5125583;28;20074;-46
2022/06/08 10:19:11;;;;;;;5.50;2.92;;;;;;;45.95;8.71;99288.31;5126096;27;20069;-43
2022/06/08 10:21:40;;;;;;;3.60;3.03;;;;;;;45.99;8.52;99274.78;5129162;27;20027;-47
2022/06/08 10:24:11;;;;;;;5.97;3.03;;;;;;;45.84;8.79;99284.06;5131218;27;20039;-44
2022/06/08 10:26:43;;;;;;;4.05;2.97;;;;;;;45.58;8.42;99266.19;5131607;27;20050;-45
2022/06/08 10:29:14;;;;;;;3.33;2.80;;;;;;;45.47;8.55;99270.16;5131993;27;20049;-45
2022/06/08 10:31:58;;;;;;;4.90;3.08;;;;;;;45.23;8.20;99272.00;5111553;27;20043;-44
2022/06/08 10:34:27;;;;;;;5.38;2.60;;;;;;;44.12;9.16;99270.84;5133606;27;20507;-45
2022/06/08 10:36:58;;;;;;;5.15;2.83;;;;;;;44.27;8.71;99268.88;5126829;27;20080;-45
2022/06/08 10:39:25;;;;;;;5.25;3.33;;;;;;;44.66;8.93;99266.16;5130924;27;20522;-47
2022/06/08 10:42:40;;;;;;;3.25;2.90;;;;;;;45.17;8.22;99270.44;5144240;27;20070;-50
2022/06/08 10:45:26;;;;;;;10.82;3.10;;;;;;;45.21;8.13;99268.75;5129905;27;20034;-45
2022/06/08 10:48:25;;;;;;;4.10;3.40;;;;;;;45.02;8.15;99266.69;5125862;27;20039;-45
2022/06/08 10:51:24;;;;;;;3.63;2.40;;;;;;;43.88;7.80;99267.91;5108262;27;20050;-44
2022/06/08 10:56:36;;;;;;;;;;;;;;;44.55;8.20;99266.47;5126475;27;20035;-45
2022/06/08 10:59:08;;;;;;;4.30;3.17;;;;;;;45.06;8.15;99256.00;5131080;27;20030;-46
2022/06/08 11:02:11;;;;;;;2.80;2.60;;;;;;;44.56;7.59;99259.91;5126710;27;20027;-44
2022/06/08 11:04:48;;;;;;;2.90;2.70;;;;;;;44.31;7.82;99250.75;5130191;27;20035;-45
2022/06/08 11:07:20;;;;;;;3.90;3.00;;;;;;;44.92;7.99;99257.72;5131618;27;20061;-43
2022/06/08 11:09:56;;;;;;;3.33;2.60;;;;;;;45.29;8.02;99257.94;5126137;27;20042;-45
2022/06/08 11:12:35;;;;;;;3.15;2.78;;;;;;;45.49;7.57;99255.00;5131747;27;20034;-47
2022/06/08 11:15:28;;;;;;;2.97;2.70;;;;;;;45.62;7.69;99256.25;5132379;27;20095;-45
2022/06/08 11:18:02;;;;;;;4.43;2.55;;;;;;;45.44;7.64;99249.56;5096939;27;20047;-46
2022/06/08 11:20:36;;;;;;;4.00;2.80;;;;;;;45.53;7.49;99250.59;5116839;27;20430;-48
2022/06/08 11:23:12;;;;;;;3.67;3.08;;;;;;;45.58;7.66;99246.13;5114081;27;20061;-43
2022/06/08 11:26:17;;;;;;;4.90;2.83;;;;;;;45.65;7.74;99244.66;5143204;27;20571;-45
2022/06/08 11:28:45;;;;;;;4.63;2.60;;;;;;;45.52;8.59;99246.19;5115801;27;20061;-44
2022/06/08 11:31:26;;;;;;;5.03;4.28;;;;;;;45.39;8.13;99251.53;5117030;27;20507;-45
2022/06/08 11:34:02;;;;;;;4.35;2.95;;;;;;;45.03;8.06;99248.28;5123941;27;20115;-45
2022/06/08 11:36:29;;;;;;;6.85;2.55;;;;;;;45.07;7.93;99247.44;5130844;27;20039;-47
2022/06/08 11:39:01;;;;;;;2.88;2.67;;;;;;;45.02;8.10;99238.41;5129517;27;20074;-46
2022/06/08 11:41:31;;;;;;;11.48;3.70;;;;;;;45.18;8.28;99252.84;5126646;27;20039;-47
2022/06/08 11:44:01;;;;;;;6.43;2.65;;;;;;;45.36;8.17;99250.19;5128418;27;20038;-48
2022/06/08 11:46:33;;;;;;;5.43;2.85;;;;;;;45.52;8.53;99248.13;5128189;27;20046;-48
2022/06/08 11:48:59;;;;;;;28.25;25.92;;;;;;;45.46;8.01;99250.09;5131291;27;20489;-47
2022/06/08 11:51:34;;;;;;;3.72;3.42;;;;;;;45.31;8.37;99243.94;5148330;27;20136;-44
2022/06/08 11:54:15;;;;;;;3.45;2.53;;;;;;;45.07;8.61;99247.44;5133301;27;20039;-45
2022/06/08 11:57:04;;;;;;;3.95;2.60;;;;;;;45.11;8.31;99253.19;5131452;27;20138;-44
2022/06/08 11:59:36;;;;;;;2.92;2.70;;;;;;;44.98;8.44;99242.84;5110126;27;20039;-44
2022/06/08 12:02:25;;;;;;;3.10;2.50;;;;;;;44.68;7.74;99232.97;5107102;27;20061;-42
2022/06/08 12:04:54;;;;;;;4.47;2.25;;;;;;;44.42;8.30;99242.44;5125452;27;20120;-47
2022/06/08 12:07:51;;;;;;;3.47;2.20;;;;;;;43.71;8.33;99234.53;5129273;27;20043;-42
2022/06/08 12:10:20;;;;;;;5.53;2.83;;;;;;;43.56;9.06;99224.44;5127626;27;20546;-46
2022/06/08 12:12:47;;;;;;;8.10;2.95;;;;;;;43.84;9.11;99229.28;5129081;27;20570;-46